Time;durP1;ratioP1;P1;durP2;ratioP2;P2;SDS_P1;SDS_P2;PMS_P1;PMS_P2;Temp;Humidity;BMP_temperature;BMP_pressure;BME280_temperature;BME280_humidity;BME280_pressure;Samples;Min_cycle;Max_cycle;Signal;HPM_P1;HPM_P2
2021/10/08 00:00:30;;;;;;;12.50;3.75;;;31.90;34.40;;;;;;5072606;28;20058;-64
2021/10/08 00:02:57;;;;;;;15.80;4.25;;;31.90;34.40;;;;;;5089761;28;20487;-68
2021/10/08 00:05:23;;;;;;;12.90;3.97;;;31.80;33.90;;;;;;5091032;28;20061;-67
2021/10/08 00:07:50;;;;;;;12.77;4.35;;;31.80;34.20;;;;;;5089036;28;20088;-64
2021/10/08 00:10:16;;;;;;;17.67;4.25;;;31.80;33.60;;;;;;5089211;28;20061;-64
2021/10/08 00:12:43;;;;;;;11.73;3.80;;;31.80;33.50;;;;;;5090260;28;20158;-65
2021/10/08 00:15:09;;;;;;;20.85;4.22;;;31.80;34.10;;;;;;5089419;28;20024;-61
2021/10/08 00:17:36;;;;;;;37.35;6.07;;;31.80;34.50;;;;;;5084602;28;20066;-62
2021/10/08 00:20:03;;;;;;;19.48;4.53;;;31.70;33.50;;;;;;5072224;28;20126;-66
2021/10/08 00:22:29;;;;;;;29.25;4.30;;;31.60;33.90;;;;;;5072600;28;20094;-63
2021/10/08 00:24:56;;;;;;;13.48;4.47;;;31.60;35.20;;;;;;5071259;28;20036;-63
2021/10/08 00:27:22;;;;;;;16.85;3.92;;;31.60;35.10;;;;;;5088539;28;20573;-64
2021/10/08 00:29:48;;;;;;;20.65;4.32;;;31.50;35.20;;;;;;5071535;28;20109;-64
2021/10/08 00:32:15;;;;;;;15.15;4.35;;;31.40;34.60;;;;;;5088334;28;20081;-63
2021/10/08 00:34:41;;;;;;;15.77;4.00;;;31.40;35.00;;;;;;5089887;28;20525;-67
2021/10/08 00:37:07;;;;;;;15.85;4.30;;;31.40;35.00;;;;;;5087771;28;20109;-64
2021/10/08 00:39:34;;;;;;;19.10;6.43;;;31.30;35.70;;;;;;5071650;28;20526;-63
2021/10/08 00:42:02;;;;;;;20.00;5.55;;;31.20;35.10;;;;;;5089392;28;20058;-67
2021/10/08 00:44:30;;;;;;;14.90;5.07;;;31.10;35.00;;;;;;5088670;28;20039;-67
2021/10/08 00:46:57;;;;;;;17.85;4.55;;;31.10;35.30;;;;;;5093250;28;20060;-62
2021/10/08 00:49:23;;;;;;;13.05;3.97;;;31.10;34.80;;;;;;5075823;28;20119;-66
2021/10/08 00:51:50;;;;;;;20.33;4.22;;;31.10;34.40;;;;;;5092694;28;20055;-65
2021/10/08 00:54:17;;;;;;;19.20;4.47;;;31.10;35.80;;;;;;5092163;28;20020;-68
2021/10/08 00:56:44;;;;;;;14.77;4.55;;;31.00;34.90;;;;;;5092414;28;20031;-64
2021/10/08 00:59:11;;;;;;;19.02;5.03;;;30.90;34.30;;;;;;5091554;28;20057;-64
2021/10/08 01:01:37;;;;;;;12.90;4.00;;;30.90;33.80;;;;;;5092808;28;20053;-64
2021/10/08 01:04:05;;;;;;;14.13;4.13;;;30.90;34.40;;;;;;5094402;28;20119;-65
2021/10/08 01:06:32;;;;;;;21.70;4.82;;;30.90;35.10;;;;;;5091874;28;20065;-68
2021/10/08 01:08:58;;;;;;;21.02;5.20;;;30.80;35.00;;;;;;5092203;28;20064;-64
2021/10/08 01:11:25;;;;;;;21.23;4.85;;;30.70;34.50;;;;;;5091831;28;20184;-62
2021/10/08 01:13:51;;;;;;;14.57;4.55;;;30.70;34.90;;;;;;5074328;28;20400;-68
2021/10/08 01:16:22;;;;;;;27.70;5.32;;;30.70;35.10;;;;;;5089976;28;20188;-67
2021/10/08 01:18:48;;;;;;;23.77;5.88;;;30.80;57.30;;;;;;5093080;28;20512;-68
2021/10/08 01:21:15;;;;;;;14.15;4.72;;;30.60;57.90;;;;;;5092084;28;20058;-65
2021/10/08 01:23:41;;;;;;;21.88;5.45;;;30.50;35.30;;;;;;5090499;28;20047;-66
2021/10/08 01:26:07;;;;;;;14.93;5.40;;;30.60;34.90;;;;;;5092820;28;20035;-65
2021/10/08 01:28:34;;;;;;;21.77;5.03;;;30.50;35.30;;;;;;5091863;28;20050;-64
2021/10/08 01:31:01;;;;;;;19.30;5.10;;;30.50;35.20;;;;;;5074324;28;20110;-67
2021/10/08 01:33:27;;;;;;;22.27;4.30;;;30.50;35.60;;;;;;5091664;28;20064;-67
2021/10/08 01:35:54;;;;;;;11.40;4.45;;;30.40;35.90;;;;;;5091481;28;20031;-62
2021/10/08 01:38:20;;;;;;;21.45;4.85;;;30.40;36.00;;;;;;5091920;28;20413;-63
2021/10/08 01:40:47;;;;;;;15.98;4.95;;;30.40;36.20;;;;;;5090862;28;20064;-65
2021/10/08 01:43:14;;;;;;;28.30;6.55;;;30.30;36.20;;;;;;5091076;28;20423;-61
2021/10/08 01:45:40;;;;;;;27.95;5.78;;;30.10;37.00;;;;;;5091521;28;20031;-60
2021/10/08 01:48:07;;;;;;;33.63;7.55;;;30.20;36.40;;;;;;5091197;28;20051;-60
2021/10/08 01:50:33;;;;;;;23.60;6.63;;;30.20;36.30;;;;;;5092395;28;20085;-63
2021/10/08 01:53:00;;;;;;;39.38;9.38;;;30.20;36.60;;;;;;5091514;28;20483;-67
2021/10/08 01:55:27;;;;;;;28.98;8.77;;;30.10;36.60;;;;;;5091169;28;20050;-66
2021/10/08 01:57:53;;;;;;;29.15;10.63;;;30.10;36.60;;;;;;5091238;28;20083;-63
2021/10/08 02:00:20;;;;;;;42.42;11.65;;;30.10;36.10;;;;;;5090892;28;20099;-68
2021/10/08 02:02:46;;;;;;;39.17;11.57;;;30.10;36.60;;;;;;5091004;28;20148;-62
2021/10/08 02:05:12;;;;;;;53.92;13.00;;;30.10;37.30;;;;;;5089504;28;20048;-63
2021/10/08 02:07:39;;;;;;;41.83;13.35;;;30.10;37.40;;;;;;5089861;28;20461;-66
2021/10/08 02:10:06;;;;;;;40.92;14.07;;;30.00;37.70;;;;;;5090635;28;20069;-67
2021/10/08 02:12:32;;;;;;;46.53;14.82;;;29.90;39.10;;;;;;5090179;28;20068;-62
2021/10/08 02:14:58;;;;;;;56.15;19.15;;;29.90;39.20;;;;;;5089905;28;20106;-64
2021/10/08 02:17:25;;;;;;;50.83;18.70;;;29.90;37.10;;;;;;5090672;28;20076;-63
2021/10/08 02:19:51;;;;;;;51.13;17.25;;;29.90;38.10;;;;;;5089920;28;20069;-62
2021/10/08 02:22:17;;;;;;;49.17;16.02;;;29.90;38.00;;;;;;5072905;28;20024;-67
2021/10/08 02:24:45;;;;;;;42.92;15.82;;;29.80;60.70;;;;;;5089762;28;20038;-64
2021/10/08 02:27:11;;;;;;;33.78;11.73;;;29.80;37.90;;;;;;5089942;28;20031;-63
2021/10/08 02:29:37;;;;;;;26.50;10.93;;;29.10;38.50;;;;;;5090420;28;20044;-64
2021/10/08 02:32:04;;;;;;;34.58;10.18;;;29.70;38.30;;;;;;5089480;28;20061;-64
2021/10/08 02:34:31;;;;;;;43.15;10.60;;;29.70;56.40;;;;;;5090158;28;20026;-65
2021/10/08 02:36:58;;;;;;;40.72;10.50;;;29.60;39.30;;;;;;5090670;28;20051;-65
2021/10/08 02:39:24;;;;;;;47.55;9.88;;;29.70;38.40;;;;;;5072479;28;20026;-64
2021/10/08 02:41:51;;;;;;;37.80;9.27;;;29.70;39.10;;;;;;5088903;28;20436;-64
2021/10/08 02:44:17;;;;;;;41.50;8.95;;;29.80;65.40;;;;;;5090159;28;20044;-65
2021/10/08 02:46:44;;;;;;;35.00;8.75;;;29.60;40.60;;;;;;5089134;28;20027;-62
2021/10/08 02:49:10;;;;;;;35.47;9.82;;;29.60;39.70;;;;;;5090810;28;20086;-64
2021/10/08 02:51:37;;;;;;;32.05;10.55;;;29.50;40.50;;;;;;5089235;28;20099;-63
2021/10/08 02:54:04;;;;;;;38.67;11.57;;;29.50;40.00;;;;;;5089278;28;20371;-68
2021/10/08 02:56:30;;;;;;;40.67;10.55;;;29.50;39.20;;;;;;5088805;28;20028;-63
2021/10/08 02:58:57;;;;;;;41.08;9.75;;;29.50;39.40;;;;;;5088690;28;20045;-65
2021/10/08 03:01:24;;;;;;;37.42;8.48;;;29.50;38.40;;;;;;5088271;28;20052;-69
2021/10/08 03:03:50;;;;;;;37.17;8.70;;;29.40;38.40;;;;;;5072049;28;20044;-65
2021/10/08 03:06:17;;;;;;;36.22;8.27;;;29.40;38.90;;;;;;5086997;28;20041;-67
2021/10/08 03:08:45;;;;;;;39.17;8.30;;;29.40;39.30;;;;;;5086976;28;20469;-64
2021/10/08 03:11:12;;;;;;;37.78;7.63;;;29.30;39.50;;;;;;5088453;28;20541;-66
2021/10/08 03:13:39;;;;;;;29.17;7.95;;;29.30;39.60;;;;;;5087983;28;20024;-66
2021/10/08 03:16:05;;;;;;;25.92;7.60;;;29.30;39.90;;;;;;5086368;28;20064;-69
2021/10/08 03:18:35;;;;;;;33.72;9.05;;;29.30;39.30;;;;;;5089406;28;20167;-68
2021/10/08 03:21:01;;;;;;;43.83;8.98;;;29.30;39.30;;;;;;5087840;28;20148;-64
2021/10/08 03:23:27;;;;;;;46.40;8.77;;;29.30;39.60;;;;;;5087221;28;20077;-63
2021/10/08 03:25:54;;;;;;;35.05;9.40;;;29.30;39.70;;;;;;5089453;28;20124;-66
2021/10/08 03:28:20;;;;;;;37.33;8.90;;;29.30;40.20;;;;;;5087549;28;20072;-69
2021/10/08 03:30:47;;;;;;;48.35;9.30;;;29.20;40.20;;;;;;5088805;28;20108;-67
2021/10/08 03:33:13;;;;;;;40.90;8.52;;;29.20;40.30;;;;;;5087045;28;20611;-68
2021/10/08 03:35:42;;;;;;;40.50;8.00;;;29.20;40.40;;;;;;5088450;28;20076;-66
2021/10/08 03:38:22;;;;;;;31.65;7.68;;;29.10;40.60;;;;;;5087504;28;20077;-63
2021/10/08 03:41:05;;;;;;;25.42;8.27;;;29.10;40.80;;;;;;5086720;28;20148;-64
2021/10/08 03:43:32;;;;;;;35.38;8.00;;;29.00;40.90;;;;;;5088588;28;20084;-65
2021/10/08 03:46:01;;;;;;;40.30;7.05;;;29.00;41.20;;;;;;5069306;28;20099;-67
2021/10/08 03:51:07;;;;;;;21.92;5.68;;;28.90;41.00;;;;;;5087813;28;20131;-65
2021/10/08 03:53:33;;;;;;;20.88;5.10;;;28.90;41.00;;;;;;5087619;28;20179;-65
2021/10/08 03:55:59;;;;;;;17.60;5.35;;;28.90;41.10;;;;;;5070217;28;20073;-62
2021/10/08 03:58:26;;;;;;;21.63;4.72;;;28.80;41.10;;;;;;5087462;28;20125;-67
2021/10/08 04:00:52;;;;;;;16.08;5.53;;;28.70;41.10;;;;;;5087336;28;20068;-65
2021/10/08 04:03:19;;;;;;;19.77;4.78;;;28.70;41.30;;;;;;5070148;28;22164;-63
2021/10/08 04:05:45;;;;;;;12.20;4.78;;;28.60;41.10;;;;;;5090701;28;20080;-66
2021/10/08 04:08:12;;;;;;;21.60;4.93;;;28.60;41.50;;;;;;5087947;28;20142;-65
2021/10/08 04:10:38;;;;;;;14.27;4.55;;;28.50;41.60;;;;;;5088027;28;20096;-64
2021/10/08 04:13:04;;;;;;;14.45;4.85;;;28.50;41.80;;;;;;5086731;28;20085;-67
2021/10/08 04:15:31;;;;;;;9.73;4.28;;;28.50;41.90;;;;;;5087689;28;20499;-64
2021/10/08 04:18:00;;;;;;;12.50;4.63;;;28.40;42.40;;;;;;5087191;28;20072;-65
2021/10/08 04:20:26;;;;;;;24.73;4.70;;;28.40;42.30;;;;;;5072804;28;20087;-63
2021/10/08 04:22:52;;;;;;;14.40;4.50;;;28.30;42.30;;;;;;5090772;28;20096;-65
2021/10/08 04:25:19;;;;;;;17.40;4.50;;;28.20;42.10;;;;;;5093468;28;20130;-65
2021/10/08 04:27:45;;;;;;;11.48;4.03;;;28.20;42.60;;;;;;5109134;28;20079;-64
2021/10/08 04:30:12;;;;;;;17.60;4.43;;;28.10;42.20;;;;;;5091737;28;20108;-63
2021/10/08 04:32:38;;;;;;;12.63;4.03;;;28.10;42.50;;;;;;5093046;28;20100;-64
2021/10/08 04:35:05;;;;;;;15.82;4.03;;;28.00;42.80;;;;;;5093190;28;20130;-63
2021/10/08 04:37:31;;;;;;;13.25;4.18;;;28.00;42.50;;;;;;5092003;28;20163;-63
2021/10/08 04:39:58;;;;;;;25.88;3.92;;;28.00;42.90;;;;;;5074750;28;20127;-68
2021/10/08 04:42:24;;;;;;;14.68;4.10;;;28.00;42.90;;;;;;5092319;28;20441;-65
2021/10/08 04:44:50;;;;;;;11.88;3.85;;;28.00;42.70;;;;;;5092569;28;20065;-66
2021/10/08 04:47:17;;;;;;;12.50;4.35;;;27.90;42.40;;;;;;5091471;28;20097;-69
2021/10/08 04:49:43;;;;;;;13.45;4.30;;;27.90;42.50;;;;;;5075284;28;20080;-69
2021/10/08 04:52:10;;;;;;;19.55;4.85;;;27.90;42.70;;;;;;5091609;28;20092;-66
2021/10/08 04:54:37;;;;;;;21.23;5.13;;;27.90;43.00;;;;;;5080490;28;20065;-69
2021/10/08 04:57:05;;;;;;;13.48;4.30;;;27.90;42.80;;;;;;5091091;28;20160;-69
2021/10/08 04:59:32;;;;;;;11.32;3.90;;;27.90;43.20;;;;;;5074366;28;20550;-71
2021/10/08 05:01:58;;;;;;;12.55;3.60;;;27.80;43.40;;;;;;5091903;28;20072;-66
2021/10/08 05:04:25;;;;;;;12.93;4.18;;;27.80;43.70;;;;;;5092080;28;20537;-64
2021/10/08 05:06:51;;;;;;;12.63;3.97;;;27.90;43.70;;;;;;5074157;28;20549;-67
2021/10/08 05:09:17;;;;;;;9.82;3.33;;;27.80;43.90;;;;;;5092426;28;20164;-63
2021/10/08 05:11:44;;;;;;;14.48;3.90;;;27.80;43.70;;;;;;5074694;28;20113;-64
2021/10/08 05:14:11;;;;;;;7.40;3.42;;;27.70;43.80;;;;;;5091052;28;20081;-69
2021/10/08 05:16:38;;;;;;;9.77;3.38;;;27.70;44.30;;;;;;5093685;28;20075;-63
2021/10/08 05:19:05;;;;;;;14.68;3.65;;;27.60;44.40;;;;;;5090769;28;20075;-66
2021/10/08 05:21:31;;;;;;;7.90;3.38;;;27.60;44.50;;;;;;5090567;28;20072;-64
2021/10/08 05:23:58;;;;;;;10.77;3.22;;;27.60;44.70;;;;;;5090934;28;20210;-63
2021/10/08 05:26:24;;;;;;;10.10;3.75;;;27.50;45.10;;;;;;5093887;28;20088;-65
2021/10/08 05:28:51;;;;;;;12.32;3.58;;;27.50;45.20;;;;;;5090212;28;20104;-64
2021/10/08 05:31:17;;;;;;;7.57;3.33;;;27.50;45.40;;;;;;5090703;28;20105;-64
2021/10/08 05:33:44;;;;;;;9.65;3.35;;;27.40;45.50;;;;;;5089667;28;20465;-64
2021/10/08 05:36:10;;;;;;;10.95;3.47;;;27.40;46.00;;;;;;5091269;28;20665;-68
2021/10/08 05:38:37;;;;;;;7.97;3.67;;;27.40;45.80;;;;;;5090242;28;20100;-69
2021/10/08 05:41:03;;;;;;;14.85;3.63;;;27.40;46.00;;;;;;5089111;28;20099;-69
2021/10/08 05:43:30;;;;;;;11.73;4.18;;;27.30;46.20;;;;;;5088356;28;20085;-69
2021/10/08 05:45:56;;;;;;;11.73;4.22;;;27.20;46.60;;;;;;5087487;28;20597;-63
2021/10/08 05:48:23;;;;;;;8.20;3.90;;;27.20;46.70;;;;;;5088471;28;20099;-65
2021/10/08 05:50:49;;;;;;;13.23;3.92;;;27.20;46.90;;;;;;5087756;28;20076;-64
2021/10/08 05:53:16;;;;;;;8.27;4.07;;;27.00;46.70;;;;;;5089911;28;20102;-67
2021/10/08 05:55:42;;;;;;;17.20;4.10;;;27.00;46.70;;;;;;5088268;28;20210;-65
2021/10/08 05:58:08;;;;;;;12.35;4.45;;;26.90;46.90;;;;;;5089037;28;20069;-64
2021/10/08 06:00:37;;;;;;;11.30;3.67;;;27.00;46.70;;;;;;5070306;28;20184;-65
2021/10/08 06:03:04;;;;;;;12.25;4.70;;;27.00;46.80;;;;;;5089289;28;20088;-66
2021/10/08 06:05:34;;;;;;;12.73;4.78;;;26.90;50.80;;;;;;5087488;28;20077;-60
2021/10/08 06:08:01;;;;;;;17.35;5.57;;;26.90;77.80;;;;;;5088891;28;20119;-63
2021/10/08 06:10:27;;;;;;;15.85;5.07;;;26.90;46.60;;;;;;5087871;28;20084;-68
2021/10/08 06:12:53;;;;;;;15.25;3.95;;;26.80;46.20;;;;;;5088770;28;20093;-67
2021/10/08 06:15:20;;;;;;;9.05;3.85;;;26.70;45.70;;;;;;5089225;28;20145;-68
2021/10/08 06:17:46;;;;;;;8.98;4.03;;;26.70;46.20;;;;;;5089913;28;20138;-65
2021/10/08 06:37:44;;;;;;;11.75;3.97;;;26.70;63.30;;;;;;5075077;28;20158;-66
2021/10/08 06:40:12;;;;;;;10.63;3.10;;;26.60;43.90;;;;;;5088797;28;20083;-65
2021/10/08 06:42:39;;;;;;;9.88;3.67;;;26.60;44.10;;;;;;5072303;28;20077;-69
2021/10/08 06:45:06;;;;;;;9.55;3.15;;;26.60;44.00;;;;;;5088716;28;20125;-67
2021/10/08 06:47:32;;;;;;;7.90;3.08;;;26.60;44.30;;;;;;5089729;28;20104;-68
2021/10/08 06:49:59;;;;;;;8.05;3.00;;;26.60;44.40;;;;;;5088027;28;20552;-68
2021/10/08 06:52:25;;;;;;;9.73;3.08;;;26.60;44.50;;;;;;5087692;28;20136;-68
2021/10/08 06:54:52;;;;;;;8.88;3.05;;;26.60;44.40;;;;;;5089147;28;20643;-64
2021/10/08 06:57:18;;;;;;;10.57;3.50;;;26.60;44.50;;;;;;5088979;28;20072;-65
2021/10/08 06:59:45;;;;;;;11.93;2.95;;;26.60;44.60;;;;;;5088581;28;20527;-64
2021/10/08 07:02:11;;;;;;;13.30;3.42;;;26.60;44.90;;;;;;5087610;28;20592;-65
2021/10/08 07:04:38;;;;;;;13.10;3.20;;;26.60;44.80;;;;;;5087154;28;20081;-64
2021/10/08 07:07:04;;;;;;;9.60;3.38;;;26.60;44.90;;;;;;5090491;28;20087;-68
2021/10/08 07:09:30;;;;;;;12.60;2.72;;;26.60;45.40;;;;;;5089041;28;20046;-64
2021/10/08 07:11:57;;;;;;;11.63;3.08;;;26.50;45.50;;;;;;5087958;28;20099;-66
2021/10/08 07:14:23;;;;;;;7.72;2.90;;;26.40;45.80;;;;;;5088818;28;20073;-63
2021/10/08 07:16:51;;;;;;;12.52;2.92;;;26.40;45.90;;;;;;5087510;28;20071;-64
2021/10/08 07:19:17;;;;;;;6.82;3.22;;;26.30;46.00;;;;;;5087763;28;20072;-64
2021/10/08 07:21:44;;;;;;;7.82;2.60;;;26.30;45.50;;;;;;5088248;28;20072;-67
2021/10/08 07:24:11;;;;;;;8.77;3.22;;;26.30;45.00;;;;;;5089887;28;20064;-68
2021/10/08 07:26:38;;;;;;;6.95;2.65;;;26.40;45.10;;;;;;5089320;28;20498;-69
2021/10/08 07:29:05;;;;;;;10.00;2.60;;;26.40;45.10;;;;;;5055764;28;20522;-66
2021/10/08 07:31:31;;;;;;;5.95;2.65;;;26.40;45.10;;;;;;5089084;28;20076;-66
2021/10/08 07:33:58;;;;;;;7.40;2.83;;;26.40;45.30;;;;;;5088488;28;20065;-67
2021/10/08 07:36:24;;;;;;;9.68;3.25;;;26.50;45.10;;;;;;5072956;28;20072;-67
2021/10/08 07:38:51;;;;;;;8.10;2.65;;;26.40;44.80;;;;;;5088244;28;20097;-66
2021/10/08 07:41:17;;;;;;;6.80;2.40;;;26.30;44.90;;;;;;5072509;28;20095;-66
2021/10/08 07:43:44;;;;;;;4.97;2.85;;;26.30;45.60;;;;;;5087841;28;20530;-65
2021/10/08 07:46:11;;;;;;;6.80;2.53;;;26.10;46.00;;;;;;5088587;28;20100;-65
2021/10/08 07:48:39;;;;;;;10.18;3.03;;;26.20;46.40;;;;;;5071139;28;20119;-67
2021/10/08 07:51:05;;;;;;;6.43;2.50;;;26.10;46.60;;;;;;5088209;28;20526;-64
2021/10/08 07:53:32;;;;;;;5.30;2.70;;;26.10;46.80;;;;;;5088082;28;20542;-67
2021/10/08 07:55:59;;;;;;;7.13;2.67;;;26.10;47.10;;;;;;5086559;28;20560;-65
2021/10/08 07:58:27;;;;;;;8.98;2.70;;;26.10;47.40;;;;;;5086925;28;20076;-65
2021/10/08 08:00:55;;;;;;;6.35;2.97;;;26.00;47.50;;;;;;5087114;28;20065;-63
2021/10/08 08:03:21;;;;;;;7.72;2.60;;;26.00;47.60;;;;;;5071278;28;20139;-66
2021/10/08 08:05:48;;;;;;;7.30;2.90;;;26.00;48.20;;;;;;5087956;28;20080;-65
2021/10/08 08:08:15;;;;;;;8.50;2.70;;;25.90;47.80;;;;;;5088774;28;20168;-63
2021/10/08 08:10:41;;;;;;;6.85;2.42;;;25.90;47.90;;;;;;5088127;28;20522;-67
2021/10/08 08:13:08;;;;;;;7.55;2.72;;;25.90;47.90;;;;;;5087180;28;20423;-65
2021/10/08 08:15:34;;;;;;;6.85;2.70;;;25.90;47.70;;;;;;5085452;28;20073;-67
2021/10/08 08:18:01;;;;;;;6.90;2.30;;;25.90;47.80;;;;;;5087586;28;20178;-65
2021/10/08 08:20:27;;;;;;;4.18;2.38;;;25.90;47.70;;;;;;5088397;28;20756;-67
2021/10/08 08:22:53;;;;;;;9.68;2.53;;;25.90;47.30;;;;;;5088777;28;20167;-66
2021/10/08 08:25:20;;;;;;;7.00;2.30;;;25.90;47.20;;;;;;5088203;28;20076;-65
2021/10/08 08:27:46;;;;;;;5.05;2.72;;;25.80;46.90;;;;;;5087249;28;20077;-66
2021/10/08 08:30:13;;;;;;;8.93;2.30;;;25.80;46.80;;;;;;5087408;28;20073;-67
2021/10/08 08:32:41;;;;;;;6.43;2.50;;;25.90;46.70;;;;;;5087606;28;20141;-59
2021/10/08 08:35:08;;;;;;;6.22;2.33;;;25.80;46.60;;;;;;5086726;28;20073;-65
2021/10/08 08:37:35;;;;;;;5.60;2.35;;;25.80;46.40;;;;;;5086005;28;20115;-62
2021/10/08 08:40:06;;;;;;;12.25;2.50;;;25.90;46.40;;;;;;5088043;28;20073;-67
2021/10/08 08:42:33;;;;;;;5.38;2.50;;;25.90;46.80;;;;;;5087155;28;20080;-65
2021/10/08 08:44:59;;;;;;;4.43;2.30;;;25.90;46.50;;;;;;5087489;28;20073;-66
2021/10/08 08:47:26;;;;;;;10.13;2.22;;;25.90;46.60;;;;;;5086613;28;20080;-62
2021/10/08 08:49:52;;;;;;;12.13;2.47;;;25.90;46.60;;;;;;5087065;28;20647;-66
2021/10/08 08:52:21;;;;;;;9.48;2.40;;;25.90;46.50;;;;;;5088156;28;20558;-64
2021/10/08 08:54:49;;;;;;;8.48;2.35;;;25.90;46.60;;;;;;5087136;28;20138;-63
2021/10/08 08:57:18;;;;;;;4.65;2.40;;;25.90;46.70;;;;;;5087090;28;20083;-65
2021/10/08 09:00:12;;;;;;;8.02;2.33;;;25.90;46.80;;;;;;5085873;28;20100;-64
2021/10/08 09:02:40;;;;;;;6.00;2.20;;;25.90;46.90;;;;;;5086585;28;20072;-64
2021/10/08 09:05:18;;;;;;;5.13;2.30;;;25.90;46.90;;;;;;5088518;28;20081;-64
2021/10/08 09:07:45;;;;;;;7.07;2.40;;;25.80;47.10;;;;;;5088689;28;20437;-67
2021/10/08 09:10:20;;;;;;;8.32;2.42;;;25.80;47.20;;;;;;5089462;28;20091;-65
2021/10/08 09:12:48;;;;;;;5.50;2.78;;;25.80;47.50;;;;;;5092589;28;20546;-64
2021/10/08 09:15:17;;;;;;;6.07;2.15;;;25.80;47.20;;;;;;5091242;28;20141;-63
2021/10/08 09:17:44;;;;;;;3.25;1.92;;;25.80;47.10;;;;;;5090746;28;20089;-64
2021/10/08 09:20:19;;;;;;;8.45;2.80;;;25.80;47.30;;;;;;5089327;28;20065;-65
2021/10/08 09:22:51;;;;;;;9.48;2.47;;;25.80;47.50;;;;;;5091672;28;20076;-66
2021/10/08 09:25:29;;;;;;;6.35;2.55;;;25.80;47.50;;;;;;5090437;28;20130;-63
2021/10/08 09:28:02;;;;;;;4.30;2.50;;;25.80;47.60;;;;;;5075431;28;20441;-64
2021/10/08 09:30:41;;;;;;;3.90;2.30;;;25.80;47.80;;;;;;5088714;28;20091;-65
2021/10/08 09:33:16;;;;;;;4.97;2.35;;;25.90;47.90;;;;;;5091375;28;20090;-64
2021/10/08 09:35:43;;;;;;;7.47;2.70;;;25.90;48.00;;;;;;5093157;28;20159;-64
2021/10/08 09:38:13;;;;;;;6.30;2.65;;;25.90;48.10;;;;;;5089217;28;20643;-66
2021/10/08 09:40:56;;;;;;;5.55;2.30;;;25.90;48.50;;;;;;5089526;28;20151;-64
2021/10/08 09:43:31;;;;;;;5.95;2.50;;;25.90;48.50;;;;;;5090599;28;20077;-64
2021/10/08 09:46:02;;;;;;;8.18;2.67;;;25.80;48.80;;;;;;5089573;28;20132;-66
2021/10/08 09:48:31;;;;;;;7.65;2.45;;;25.80;48.90;;;;;;5088665;28;20108;-65
2021/10/08 09:51:13;;;;;;;7.53;2.33;;;25.80;49.10;;;;;;5089731;28;20514;-67
2021/10/08 09:53:48;;;;;;;12.82;2.80;;;25.70;49.40;;;;;;5088317;28;20095;-64
2021/10/08 09:56:39;;;;;;;4.90;2.67;;;25.70;49.50;;;;;;5089753;28;20600;-62
2021/10/08 09:59:15;;;;;;;5.57;2.80;;;25.70;49.70;;;;;;5074070;28;20065;-66
2021/10/08 10:01:45;;;;;;;6.43;2.80;;;25.70;50.40;;;;;;5090216;28;20104;-67
2021/10/08 10:04:11;;;;;;;9.57;3.00;;;25.70;50.60;;;;;;5089508;28;20095;-64
2021/10/08 10:06:39;;;;;;;7.40;2.58;;;25.70;50.90;;;;;;5089390;28;20083;-64
2021/10/08 10:09:08;;;;;;;7.20;2.80;;;25.60;51.10;;;;;;5090434;28;20072;-64
2021/10/08 10:11:35;;;;;;;17.73;3.50;;;25.60;51.40;;;;;;5073437;28;20116;-66
2021/10/08 10:14:02;;;;;;;9.38;3.15;;;25.60;51.50;;;;;;5057068;28;20073;-63
2021/10/08 10:16:35;;;;;;;7.10;2.70;;;25.60;51.90;;;;;;5091452;28;20084;-65
2021/10/08 10:19:03;;;;;;;6.85;3.08;;;25.50;52.20;;;;;;5085792;28;20526;-67
2021/10/08 10:21:32;;;;;;;4.78;2.53;;;25.50;52.40;;;;;;5089716;28;20080;-66
2021/10/08 10:24:01;;;;;;;6.88;2.63;;;25.50;52.50;;;;;;5073993;28;20126;-65
2021/10/08 10:26:30;;;;;;;7.78;3.20;;;25.50;53.30;;;;;;5089550;28;20079;-64
2021/10/08 10:28:59;;;;;;;7.85;2.90;;;25.50;52.90;;;;;;5073728;28;20088;-64
2021/10/08 10:31:26;;;;;;;13.27;3.35;;;25.50;52.90;;;;;;5088420;28;20076;-68
2021/10/08 10:34:00;;;;;;;5.95;2.63;;;25.50;52.70;;;;;;5087629;28;20092;-66
2021/10/08 10:36:28;;;;;;;7.25;3.40;;;25.40;52.90;;;;;;5056614;28;20101;-65
2021/10/08 10:39:13;;;;;;;6.82;3.10;;;25.40;53.20;;;;;;5087876;28;20105;-66
2021/10/08 10:41:40;;;;;;;8.40;2.95;;;25.40;53.40;;;;;;5087421;28;20077;-64
2021/10/08 10:44:36;;;;;;;10.50;3.05;;;25.40;53.60;;;;;;5089442;28;20122;-67
2021/10/08 10:47:19;;;;;;;11.23;3.30;;;25.40;53.70;;;;;;5090701;28;20088;-67
2021/10/08 10:49:51;;;;;;;7.05;3.00;;;25.30;53.90;;;;;;5087113;28;20099;-63
2021/10/08 10:52:21;;;;;;;7.07;2.88;;;25.30;54.00;;;;;;5088032;28;20096;-65
2021/10/08 10:54:53;;;;;;;9.88;3.03;;;25.20;54.20;;;;;;5089699;28;20128;-66
2021/10/08 10:57:21;;;;;;;10.20;3.45;;;25.20;53.90;;;;;;5089927;28;20526;-64
2021/10/08 10:59:48;;;;;;;7.78;2.85;;;25.20;53.30;;;;;;5089427;28;20077;-61
2021/10/08 11:02:24;;;;;;;8.38;2.70;;;25.10;52.50;;;;;;5089570;28;20108;-64
2021/10/08 11:05:07;;;;;;;11.90;2.88;;;25.10;52.20;;;;;;5090583;28;20108;-63
2021/10/08 11:07:34;;;;;;;6.88;3.03;;;25.10;51.70;;;;;;5089965;28;20434;-62
2021/10/08 11:10:03;;;;;;;10.77;2.83;;;25.10;51.60;;;;;;5089336;28;20076;-64
2021/10/08 11:12:33;;;;;;;6.10;2.47;;;25.10;51.60;;;;;;5090641;28;20090;-66
2021/10/08 11:15:18;;;;;;;7.72;2.30;;;25.10;51.60;;;;;;5088473;28;20077;-66
2021/10/08 11:17:57;;;;;;;8.30;2.25;;;25.00;51.10;;;;;;5085884;28;20557;-64
2021/10/08 11:20:30;;;;;;;12.27;2.63;;;25.00;51.60;;;;;;5089404;28;20080;-64
2021/10/08 11:23:01;;;;;;;8.27;2.45;;;25.00;50.90;;;;;;5088521;28;20103;-64
2021/10/08 11:25:46;;;;;;;12.05;2.30;;;25.00;50.40;;;;;;5070893;28;20092;-65
2021/10/08 11:28:15;;;;;;;6.47;2.30;;;25.00;49.80;;;;;;5088087;28;20446;-63
2021/10/08 11:30:42;;;;;;;10.75;2.10;;;25.10;49.40;;;;;;5087214;28;20116;-67
2021/10/08 11:33:08;;;;;;;7.35;2.75;;;25.10;48.60;;;;;;5087908;28;20167;-64
2021/10/08 11:35:36;;;;;;;8.77;2.03;;;25.10;47.90;;;;;;5088640;28;20069;-66
2021/10/08 11:38:04;;;;;;;8.70;1.88;;;25.20;47.80;;;;;;5087424;28;20191;-66
2021/10/08 11:40:38;;;;;;;8.35;1.80;;;25.20;47.30;;;;;;5087526;28;20430;-65
2021/10/08 11:43:10;;;;;;;7.28;2.22;;;25.30;47.00;;;;;;5089880;28;20076;-63
2021/10/08 11:45:56;;;;;;;5.97;1.50;;;25.30;46.60;;;;;;5089238;28;20084;-66
2021/10/08 11:48:29;;;;;;;6.97;1.65;;;25.30;46.60;;;;;;5087684;28;20468;-67
2021/10/08 11:51:05;;;;;;;6.60;1.52;;;25.30;46.40;;;;;;5087256;28;20084;-63
2021/10/08 11:53:45;;;;;;;;;;;25.40;46.00;;;;;;5088172;28;20124;-66
2021/10/08 11:56:29;;;;;;;7.05;1.30;;;25.40;45.10;;;;;;5070179;28;20335;-61
2021/10/08 11:59:10;;;;;;;4.60;1.60;;;25.40;44.50;;;;;;5087437;28;20130;-62
2021/10/08 12:01:40;;;;;;;6.70;1.40;;;25.50;44.40;;;;;;5088035;28;20157;-66
2021/10/08 12:04:08;;;;;;;7.75;1.60;;;25.50;44.30;;;;;;5089024;28;20072;-63
2021/10/08 12:06:34;;;;;;;6.13;1.45;;;25.50;44.30;;;;;;5088240;28;20079;-65
2021/10/08 12:09:05;;;;;;;9.77;1.50;;;25.50;44.30;;;;;;5089401;28;20085;-66
2021/10/08 12:11:32;;;;;;;4.85;1.70;;;25.50;44.20;;;;;;5088260;28;20129;-64
2021/10/08 12:14:04;;;;;;;9.00;1.38;;;25.40;44.50;;;;;;5086221;28;20084;-62
2021/10/08 12:16:41;;;;;;;8.07;1.35;;;25.50;44.30;;;;;;5086841;28;20073;-63
2021/10/08 12:19:10;;;;;;;3.10;1.33;;;25.50;44.00;;;;;;5084477;28;20103;-65
2021/10/08 12:21:38;;;;;;;3.95;1.20;;;25.40;44.00;;;;;;5087889;28;20122;-62
2021/10/08 12:24:25;;;;;;;5.68;1.42;;;25.40;44.10;;;;;;5087141;28;20080;-66
2021/10/08 12:26:54;;;;;;;2.83;1.30;;;25.40;44.20;;;;;;5086475;28;20073;-65
2021/10/08 12:29:21;;;;;;;4.45;1.27;;;25.40;44.30;;;;;;5085660;28;20368;-62
2021/10/08 12:31:59;;;;;;;3.20;1.10;;;25.30;44.50;;;;;;5087107;28;20073;-62
2021/10/08 12:34:53;;;;;;;5.97;1.52;;;25.30;44.50;;;;;;5089083;28;20080;-65
2021/10/08 12:37:29;;;;;;;2.67;1.45;;;25.40;45.00;;;;;;5081679;28;20144;-61
2021/10/08 12:40:15;;;;;;;5.65;1.80;;;25.30;45.10;;;;;;5087085;28;20065;-63
2021/10/08 12:43:03;;;;;;;5.85;1.40;;;25.30;45.00;;;;;;5090358;28;20605;-63
2021/10/08 12:45:37;;;;;;;4.75;1.40;;;25.30;44.80;;;;;;5076945;28;20091;-64
2021/10/08 12:48:04;;;;;;;7.55;1.77;;;25.30;44.70;;;;;;5092313;28;20073;-64
2021/10/08 12:50:36;;;;;;;4.65;1.30;;;25.20;44.60;;;;;;5090843;28;20088;-64
2021/10/08 12:53:14;;;;;;;6.85;1.85;;;25.20;45.00;;;;;;5091511;28;20081;-62
2021/10/08 12:55:41;;;;;;;4.38;1.67;;;25.20;45.20;;;;;;5089811;28;20565;-64
2021/10/08 12:58:14;;;;;;;10.20;1.60;;;25.20;45.30;;;;;;5090264;28;20100;-65
2021/10/08 13:00:47;;;;;;;5.32;1.60;;;25.20;45.20;;;;;;5088343;28;20069;-64
2021/10/08 13:03:42;;;;;;;10.20;1.98;;;25.10;45.40;;;;;;5089662;28;20104;-65
2021/10/08 13:06:09;;;;;;;6.72;1.77;;;25.10;45.20;;;;;;5093454;28;20084;-62
2021/10/08 13:08:38;;;;;;;8.38;1.92;;;25.10;45.50;;;;;;5091500;28;20522;-63